Time;durP1;ratioP1;P1;durP2;ratioP2;P2;SDS_P1;SDS_P2;PMS_P1;PMS_P2;Temp;Humidity;BMP_temperature;BMP_pressure;BME280_temperature;BME280_humidity;BME280_pressure;Samples;Min_cycle;Max_cycle;Signal;HPM_P1;HPM_P2
2023/12/13 00:02:25;;;;;;;8.23;7.40;;;4.90;1.00;;;;;;5059393;28;20197;-68
2023/12/13 00:04:51;;;;;;;12.63;6.87;;;4.90;1.00;;;;;;5054981;28;20209;-65
2023/12/13 00:07:16;;;;;;;8.13;6.83;;;4.80;1.00;;;;;;5050662;28;20460;-66
2023/12/13 00:09:42;;;;;;;12.47;7.40;;;4.80;1.00;;;;;;5051890;28;20175;-68
2023/12/13 00:12:08;;;;;;;10.50;8.30;;;4.80;1.00;;;;;;5052229;28;20677;-65
2023/12/13 00:14:33;;;;;;;8.47;7.63;;;4.80;1.00;;;;;;5051560;28;20268;-65
2023/12/13 00:16:59;;;;;;;8.87;7.93;;;4.80;1.00;;;;;;5053474;28;20724;-67
2023/12/13 00:19:25;;;;;;;11.67;8.40;;;4.80;1.00;;;;;;5052140;28;20623;-65
2023/12/13 00:21:50;;;;;;;12.20;8.33;;;4.70;1.00;;;;;;5051929;28;20252;-69
2023/12/13 00:24:16;;;;;;;12.60;8.23;;;4.70;1.00;;;;;;5035954;28;20207;-65
2023/12/13 00:26:42;;;;;;;15.00;9.47;;;4.80;1.00;;;;;;5031557;28;20175;-66
2023/12/13 00:29:08;;;;;;;14.03;9.40;;;4.70;1.00;;;;;;5037946;28;20415;-65
2023/12/13 00:31:34;;;;;;;11.87;8.17;;;4.70;1.00;;;;;;5053151;28;20174;-66
2023/12/13 00:34:00;;;;;;;11.13;7.63;;;4.80;1.00;;;;;;5052284;28;20961;-65
2023/12/13 00:36:26;;;;;;;20.17;8.57;;;4.80;1.00;;;;;;5052285;28;20415;-68
2023/12/13 00:38:51;;;;;;;11.90;8.30;;;4.90;1.00;;;;;;5053532;28;20197;-68
2023/12/13 00:41:17;;;;;;;8.90;7.43;;;4.90;1.00;;;;;;5033444;28;20265;-66
2023/12/13 00:43:43;;;;;;;9.63;7.90;;;4.90;1.00;;;;;;5033512;28;20665;-68
2023/12/13 00:46:22;;;;;;;14.67;9.60;;;4.90;1.00;;;;;;5040015;28;20589;-70
2023/12/13 00:48:48;;;;;;;12.33;9.20;;;4.80;1.00;;;;;;5051903;28;20207;-67
2023/12/13 00:51:16;;;;;;;11.00;7.70;;;4.80;1.00;;;;;;5065934;28;20971;-68
2023/12/13 00:53:42;;;;;;;11.77;8.87;;;4.90;1.00;;;;;;5051522;28;20484;-67
2023/12/13 00:56:08;;;;;;;12.27;9.03;;;4.90;1.00;;;;;;5049771;28;20930;-65
2023/12/13 00:58:33;;;;;;;10.47;7.87;;;4.90;1.00;;;;;;5062636;28;20201;-65
2023/12/13 01:01:00;;;;;;;11.70;9.47;;;4.90;1.00;;;;;;5055301;28;20463;-67
2023/12/13 01:03:26;;;;;;;14.47;9.37;;;4.90;1.00;;;;;;5059416;28;20257;-65
2023/12/13 01:05:52;;;;;;;12.27;8.30;;;4.90;1.00;;;;;;5061673;28;20578;-67
2023/12/13 01:08:17;;;;;;;13.33;8.77;;;4.90;1.00;;;;;;5061836;28;20218;-66
2023/12/13 01:10:44;;;;;;;14.40;10.00;;;4.90;1.00;;;;;;5068886;28;20190;-66
2023/12/13 01:13:09;;;;;;;12.93;8.87;;;4.80;1.00;;;;;;5063627;28;20198;-64
2023/12/13 01:15:36;;;;;;;12.03;8.80;;;4.70;1.00;;;;;;5049714;28;20433;-65
2023/12/13 01:18:03;;;;;;;10.07;7.60;;;4.80;1.00;;;;;;5052619;28;20585;-67
2023/12/13 01:20:29;;;;;;;13.67;9.60;;;4.80;1.00;;;;;;5053022;28;20496;-67
2023/12/13 01:22:55;;;;;;;12.67;9.37;;;4.90;1.00;;;;;;5052913;28;20641;-67
2023/12/13 01:25:20;;;;;;;11.40;8.73;;;4.90;1.00;;;;;;5051539;28;20194;-67
2023/12/13 01:27:46;;;;;;;11.50;8.50;;;4.90;1.00;;;;;;5052450;28;20794;-67
2023/12/13 01:30:12;;;;;;;11.90;8.87;;;4.90;1.00;;;;;;5048760;28;20273;-66
2023/12/13 01:32:37;;;;;;;10.17;8.70;;;4.90;1.00;;;;;;5032854;28;20176;-68
2023/12/13 01:35:05;;;;;;;13.67;9.60;;;5.00;1.00;;;;;;5042935;28;20174;-65
2023/12/13 01:37:30;;;;;;;10.77;8.40;;;5.00;1.00;;;;;;5052746;28;20202;-66
2023/12/13 01:39:56;;;;;;;11.60;9.10;;;5.10;1.00;;;;;;5052958;28;20401;-66
2023/12/13 01:42:25;;;;;;;9.90;8.37;;;5.00;1.00;;;;;;5052846;28;20634;-69
2023/12/13 01:44:51;;;;;;;10.83;8.87;;;5.00;1.00;;;;;;5051248;28;20482;-66
2023/12/13 01:47:17;;;;;;;11.73;9.27;;;5.00;1.00;;;;;;5048042;28;20446;-66
2023/12/13 01:49:45;;;;;;;16.67;10.50;;;5.00;1.00;;;;;;5031991;28;20206;-64
2023/12/13 01:52:12;;;;;;;18.53;9.93;;;4.90;1.00;;;;;;5036095;28;20524;-67
2023/12/13 01:54:37;;;;;;;11.23;9.20;;;4.90;1.00;;;;;;5051831;28;20546;-68
2023/12/13 01:57:04;;;;;;;14.70;9.70;;;4.90;1.00;;;;;;5058343;28;21048;-65
2023/12/13 01:59:33;;;;;;;18.90;11.97;;;4.90;1.00;;;;;;5072709;28;20395;-65
2023/12/13 02:01:59;;;;;;;15.07;10.27;;;4.90;1.00;;;;;;5061869;28;20427;-68
2023/12/13 02:04:27;;;;;;;16.10;10.93;;;4.90;1.00;;;;;;5050715;28;20415;-68
2023/12/13 02:06:53;;;;;;;15.60;10.80;;;4.90;1.00;;;;;;5069637;28;20536;-65
2023/12/13 02:09:19;;;;;;;21.37;11.43;;;4.90;1.00;;;;;;5055760;28;20593;-68
2023/12/13 02:11:46;;;;;;;19.77;12.03;;;4.90;1.00;;;;;;5070187;28;20462;-71
2023/12/13 02:14:12;;;;;;;23.40;13.50;;;4.90;1.00;;;;;;5074875;28;20201;-64
2023/12/13 02:16:38;;;;;;;20.17;11.67;;;4.90;1.00;;;;;;5074061;28;20442;-67
2023/12/13 02:19:03;;;;;;;24.50;13.20;;;4.90;1.00;;;;;;5058355;28;20431;-64
2023/12/13 02:21:30;;;;;;;21.20;12.13;;;4.90;1.00;;;;;;5049203;28;20422;-67
2023/12/13 02:24:00;;;;;;;26.53;12.50;;;4.90;1.00;;;;;;5056518;28;20643;-65
2023/12/13 02:26:26;;;;;;;27.20;12.60;;;4.90;1.00;;;;;;5074947;28;20750;-67
2023/12/13 02:28:54;;;;;;;19.20;13.13;;;4.90;1.00;;;;;;5059860;28;20451;-71
2023/12/13 02:31:20;;;;;;;20.83;12.23;;;4.90;1.00;;;;;;5069167;28;20428;-64
2023/12/13 02:33:46;;;;;;;21.87;12.27;;;4.90;1.00;;;;;;5054780;28;20499;-65
2023/12/13 02:36:12;;;;;;;19.93;12.57;;;4.80;1.00;;;;;;5063853;28;20463;-65
2023/12/13 02:38:40;;;;;;;22.20;13.53;;;4.80;1.00;;;;;;5054299;28;20205;-68
2023/12/13 02:41:07;;;;;;;18.57;11.80;;;4.80;1.00;;;;;;5066814;28;20177;-68
2023/12/13 02:43:32;;;;;;;26.23;12.17;;;4.90;1.00;;;;;;5064605;28;20478;-65
2023/12/13 02:45:58;;;;;;;21.17;13.77;;;4.90;1.00;;;;;;5051789;28;20440;-64
2023/12/13 02:48:24;;;;;;;17.80;12.20;;;4.80;1.00;;;;;;5054461;28;20206;-66
2023/12/13 02:50:52;;;;;;;22.77;11.60;;;4.80;1.00;;;;;;5054235;28;20488;-64
2023/12/13 02:53:19;;;;;;;22.40;12.80;;;4.80;1.00;;;;;;5054344;28;20461;-69
2023/12/13 02:55:44;;;;;;;24.20;12.70;;;4.70;1.00;;;;;;5066485;28;20433;-65
2023/12/13 02:58:10;;;;;;;20.47;12.00;;;4.70;1.00;;;;;;5054037;28;20958;-66
2023/12/13 03:00:36;;;;;;;22.60;11.50;;;4.80;1.00;;;;;;5054263;28;20183;-65
2023/12/13 03:03:02;;;;;;;22.90;12.33;;;4.70;1.00;;;;;;5052402;28;20183;-65
2023/12/13 03:05:27;;;;;;;20.30;12.00;;;4.70;1.00;;;;;;5054404;28;20437;-67
2023/12/13 03:07:53;;;;;;;17.60;11.03;;;4.70;1.00;;;;;;5062753;28;20240;-65
2023/12/13 03:10:19;;;;;;;22.27;12.10;;;4.70;1.00;;;;;;5065248;28;20642;-65
2023/12/13 03:12:45;;;;;;;17.03;10.27;;;4.80;1.00;;;;;;5061616;28;20193;-65
2023/12/13 03:15:10;;;;;;;16.57;10.30;;;4.80;1.00;;;;;;5067728;28;20184;-64
2023/12/13 03:17:36;;;;;;;17.00;10.03;;;4.70;1.00;;;;;;5053723;28;20431;-64
2023/12/13 03:20:03;;;;;;;17.80;10.40;;;4.70;1.00;;;;;;5053983;28;20531;-65
2023/12/13 03:22:29;;;;;;;20.30;11.50;;;4.80;1.00;;;;;;5054950;28;20178;-67
2023/12/13 03:24:56;;;;;;;16.77;10.60;;;4.70;1.00;;;;;;5052465;28;20447;-66
2023/12/13 03:27:22;;;;;;;15.47;9.80;;;4.60;1.00;;;;;;5054457;28;20216;-66
2023/12/13 03:29:48;;;;;;;22.03;9.73;;;4.60;1.00;;;;;;5052022;28;20479;-65
2023/12/13 03:32:14;;;;;;;19.20;10.57;;;4.70;1.00;;;;;;5052850;28;20276;-67
2023/12/13 03:34:39;;;;;;;16.50;11.67;;;4.70;1.00;;;;;;5053465;28;20243;-65
2023/12/13 03:37:06;;;;;;;16.00;9.40;;;4.70;1.00;;;;;;5054502;28;20179;-66
2023/12/13 03:39:33;;;;;;;15.53;10.53;;;4.70;1.00;;;;;;5054489;28;20169;-65
2023/12/13 03:41:58;;;;;;;15.50;10.13;;;4.70;1.00;;;;;;5054297;28;20805;-64
2023/12/13 03:44:24;;;;;;;18.70;10.13;;;4.70;1.00;;;;;;5054409;28;20401;-64
2023/12/13 03:46:50;;;;;;;13.40;8.90;;;4.80;1.00;;;;;;5052850;28;20453;-67
2023/12/13 03:49:16;;;;;;;13.33;9.13;;;4.80;1.00;;;;;;5053708;28;20173;-66
2023/12/13 03:51:46;;;;;;;13.03;9.37;;;4.90;1.00;;;;;;5057171;28;20639;-64
2023/12/13 03:54:12;;;;;;;14.43;9.33;;;4.90;1.00;;;;;;5071319;28;20466;-65
2023/12/13 03:56:38;;;;;;;12.47;8.80;;;4.90;1.00;;;;;;5070852;28;20498;-64
2023/12/13 03:59:03;;;;;;;14.17;9.27;;;4.90;1.00;;;;;;5067706;28;20431;-66
2023/12/13 04:01:29;;;;;;;11.60;8.30;;;4.90;1.00;;;;;;5070547;28;20539;-68
2023/12/13 04:03:55;;;;;;;13.07;8.13;;;4.80;1.00;;;;;;5057127;28;20466;-64
2023/12/13 04:06:20;;;;;;;11.63;7.87;;;4.80;1.00;;;;;;5071328;28;20181;-66
2023/12/13 04:08:46;;;;;;;10.73;7.40;;;4.80;1.00;;;;;;5066978;28;20198;-66
2023/12/13 04:11:12;;;;;;;11.00;8.20;;;4.90;1.00;;;;;;5071536;28;20197;-65
2023/12/13 04:13:38;;;;;;;12.53;7.50;;;4.90;1.00;;;;;;5055862;28;20540;-66
2023/12/13 04:16:04;;;;;;;9.03;7.63;;;4.90;1.00;;;;;;5071749;28;20261;-65
2023/12/13 04:18:29;;;;;;;8.97;6.47;;;4.90;1.00;;;;;;5064243;28;20197;-66
2023/12/13 04:20:55;;;;;;;7.03;6.33;;;4.90;1.00;;;;;;5064253;28;20451;-66
2023/12/13 04:23:21;;;;;;;12.63;6.80;;;4.90;1.00;;;;;;5073396;28;20189;-64
2023/12/13 04:25:47;;;;;;;7.67;6.47;;;4.90;1.00;;;;;;5066412;28;20247;-67
2023/12/13 04:28:13;;;;;;;9.37;6.67;;;4.90;1.00;;;;;;5068032;28;20448;-67
2023/12/13 04:30:39;;;;;;;7.37;5.97;;;4.80;1.00;;;;;;5064286;28;20194;-67
2023/12/13 04:33:04;;;;;;;6.50;5.90;;;4.80;1.00;;;;;;5059924;28;20490;-64
2023/12/13 04:35:32;;;;;;;6.63;5.93;;;4.80;1.00;;;;;;5071738;28;20623;-66
2023/12/13 04:37:58;;;;;;;6.33;5.73;;;4.90;1.00;;;;;;5066522;28;20767;-65
2023/12/13 04:40:24;;;;;;;8.03;6.40;;;4.90;1.00;;;;;;5050412;28;20432;-64
2023/12/13 04:42:50;;;;;;;6.13;5.63;;;4.90;1.00;;;;;;5064467;28;20441;-65
2023/12/13 04:45:16;;;;;;;6.60;5.93;;;4.90;1.00;;;;;;5066340;28;20923;-70
2023/12/13 04:47:42;;;;;;;6.77;6.07;;;4.90;1.00;;;;;;5054831;28;20662;-65
2023/12/13 04:50:08;;;;;;;8.00;6.40;;;5.00;1.00;;;;;;5069293;28;20427;-68
2023/12/13 04:52:33;;;;;;;7.07;6.07;;;4.90;1.00;;;;;;5057377;28;20585;-65
2023/12/13 04:54:59;;;;;;;7.93;7.13;;;4.90;1.00;;;;;;5071282;28;20475;-65
2023/12/13 04:57:25;;;;;;;9.43;6.60;;;4.80;1.00;;;;;;5073261;28;20193;-65
2023/12/13 04:59:51;;;;;;;9.60;7.33;;;4.90;1.00;;;;;;5067363;28;20631;-65
2023/12/13 05:02:16;;;;;;;8.50;6.30;;;4.90;1.00;;;;;;5052093;28;20224;-67
2023/12/13 05:04:42;;;;;;;7.03;6.17;;;5.00;1.00;;;;;;5064648;28;20436;-65
2023/12/13 05:07:11;;;;;;;7.67;6.97;;;5.00;1.00;;;;;;5059643;28;20217;-64
2023/12/13 05:09:36;;;;;;;8.67;5.97;;;5.00;1.00;;;;;;5056928;28;20436;-64
2023/12/13 05:12:02;;;;;;;7.37;6.70;;;4.90;1.00;;;;;;5070832;28;20805;-65
2023/12/13 05:14:28;;;;;;;7.23;6.30;;;4.90;1.00;;;;;;5055839;28;20252;-65
2023/12/13 05:16:54;;;;;;;9.90;6.87;;;4.90;1.00;;;;;;5049701;28;20859;-68
2023/12/13 05:19:20;;;;;;;7.47;6.63;;;5.00;1.00;;;;;;5052933;28;20174;-66
2023/12/13 05:21:46;;;;;;;10.83;6.33;;;4.90;1.00;;;;;;5052628;28;20619;-65
2023/12/13 05:24:12;;;;;;;10.37;6.87;;;4.80;1.00;;;;;;5052685;28;20432;-65
2023/12/13 05:26:37;;;;;;;8.13;6.33;;;4.80;1.00;;;;;;5051612;28;20179;-65
2023/12/13 05:29:03;;;;;;;9.63;6.43;;;4.80;1.00;;;;;;5042477;28;20417;-65
2023/12/13 05:31:29;;;;;;;10.57;7.13;;;4.80;1.00;;;;;;5033038;28;20176;-64
2023/12/13 05:33:55;;;;;;;8.10;7.30;;;4.80;1.00;;;;;;5038900;28;20557;-68
2023/12/13 05:36:20;;;;;;;7.60;6.73;;;4.90;1.00;;;;;;5050729;28;20203;-64
2023/12/13 05:38:46;;;;;;;11.00;8.47;;;4.90;1.00;;;;;;5052560;28;20434;-65
2023/12/13 05:41:12;;;;;;;8.70;6.93;;;4.80;1.00;;;;;;5054926;28;20178;-65
2023/12/13 05:43:38;;;;;;;7.23;5.83;;;4.80;1.00;;;;;;5056867;28;20694;-65
2023/12/13 05:46:05;;;;;;;11.13;6.80;;;4.90;1.00;;;;;;5045257;28;20430;-65
2023/12/13 05:48:31;;;;;;;9.57;7.03;;;4.80;1.00;;;;;;5075213;28;20460;-65
2023/12/13 05:50:58;;;;;;;11.60;7.10;;;4.80;1.00;;;;;;5061000;28;20521;-66
2023/12/13 05:53:23;;;;;;;8.87;5.87;;;4.90;1.00;;;;;;5074913;28;20563;-64
2023/12/13 05:55:49;;;;;;;10.93;6.23;;;4.80;1.00;;;;;;5065228;28;21004;-65
2023/12/13 05:58:15;;;;;;;7.00;6.30;;;4.90;1.00;;;;;;5064166;28;20205;-65
2023/12/13 06:00:41;;;;;;;8.30;7.40;;;4.90;1.00;;;;;;5064850;28;20187;-65
2023/12/13 06:03:06;;;;;;;8.73;6.40;;;4.80;1.00;;;;;;5070103;28;20207;-64
2023/12/13 06:05:32;;;;;;;9.70;7.00;;;4.80;1.00;;;;;;5067004;28;20178;-65
2023/12/13 06:07:58;;;;;;;8.43;7.00;;;4.80;1.00;;;;;;5058800;28;20222;-65
2023/12/13 06:10:23;;;;;;;7.90;6.53;;;4.80;1.00;;;;;;5055022;28;20183;-65
2023/12/13 06:12:52;;;;;;;13.90;8.50;;;4.80;1.00;;;;;;5051526;28;20272;-65
2023/12/13 06:15:19;;;;;;;8.97;6.90;;;4.70;1.00;;;;;;5051944;28;20184;-66
2023/12/13 06:17:44;;;;;;;8.97;7.23;;;4.80;1.00;;;;;;5068263;28;20443;-65
2023/12/13 06:20:10;;;;;;;9.17;7.90;;;4.70;1.00;;;;;;5064598;28;20409;-65
2023/12/13 06:22:36;;;;;;;10.40;6.60;;;4.70;1.00;;;;;;5057871;28;20261;-65
2023/12/13 06:25:02;;;;;;;9.13;7.17;;;4.70;1.00;;;;;;5074956;28;20518;-66
2023/12/13 06:27:28;;;;;;;13.47;8.07;;;4.70;1.00;;;;;;5072964;28;20192;-65
2023/12/13 06:29:54;;;;;;;11.87;7.77;;;4.70;1.00;;;;;;5076053;28;20404;-65
2023/12/13 06:32:19;;;;;;;12.03;6.50;;;4.60;1.00;;;;;;5065698;28;20314;-65
2023/12/13 06:34:46;;;;;;;11.30;7.17;;;4.70;1.00;;;;;;5059482;28;20205;-67
2023/12/13 06:37:11;;;;;;;10.73;7.40;;;4.70;1.00;;;;;;5075565;28;20430;-64
2023/12/13 06:39:37;;;;;;;10.00;7.10;;;4.70;1.00;;;;;;5063637;28;20443;-67
2023/12/13 06:42:04;;;;;;;7.83;6.40;;;4.80;1.00;;;;;;5073623;28;20188;-65
2023/12/13 06:44:30;;;;;;;8.37;6.67;;;4.70;1.00;;;;;;5074219;28;20259;-75
2023/12/13 06:46:57;;;;;;;7.80;5.90;;;4.70;1.00;;;;;;5075030;28;20590;-64
2023/12/13 06:49:23;;;;;;;6.90;6.20;;;4.70;1.00;;;;;;5067560;28;20201;-68
2023/12/13 06:51:50;;;;;;;8.00;6.07;;;4.70;1.00;;;;;;5073764;28;20408;-65
2023/12/13 06:54:16;;;;;;;10.27;6.20;;;4.60;1.00;;;;;;5053880;28;20817;-65
2023/12/13 06:56:42;;;;;;;6.00;5.30;;;4.70;1.00;;;;;;5037910;28;20438;-65
2023/12/13 06:59:08;;;;;;;6.40;5.77;;;4.70;1.00;;;;;;5035871;28;20444;-65
2023/12/13 07:01:33;;;;;;;8.57;6.07;;;4.70;1.00;;;;;;5046183;28;20181;-65
2023/12/13 07:04:01;;;;;;;5.90;5.40;;;4.70;1.00;;;;;;5055243;28;20755;-65
2023/12/13 07:06:27;;;;;;;6.60;5.37;;;4.80;1.00;;;;;;5054278;28;20261;-65
2023/12/13 07:08:52;;;;;;;6.90;5.40;;;4.80;1.00;;;;;;5050099;28;20552;-66
2023/12/13 07:11:18;;;;;;;6.70;5.47;;;4.70;1.00;;;;;;5054685;28;20421;-66
2023/12/13 07:13:44;;;;;;;5.77;5.27;;;4.70;1.00;;;;;;5054954;28;20215;-65
2023/12/13 07:16:09;;;;;;;7.23;6.53;;;4.60;1.00;;;;;;5037807;28;20258;-66
2023/12/13 07:18:35;;;;;;;5.83;5.00;;;4.70;1.00;;;;;;5034938;28;20183;-64
2023/12/13 07:21:01;;;;;;;6.57;5.87;;;4.70;1.00;;;;;;5035020;28;20169;-65
2023/12/13 07:23:26;;;;;;;5.53;5.00;;;4.60;1.00;;;;;;5036019;28;20629;-64
2023/12/13 07:25:52;;;;;;;5.60;5.10;;;4.70;1.00;;;;;;5033981;28;20251;-64
2023/12/13 07:28:18;;;;;;;6.40;5.03;;;4.70;1.00;;;;;;5048340;28;20207;-64
2023/12/13 07:30:44;;;;;;;11.30;5.53;;;4.80;1.00;;;;;;5052435;28;20628;-65
2023/12/13 07:33:10;;;;;;;7.70;5.40;;;4.70;1.00;;;;;;5054491;28;20675;-64
2023/12/13 07:35:36;;;;;;;5.90;4.70;;;4.60;1.00;;;;;;5053555;28;20398;-66
2023/12/13 07:38:03;;;;;;;6.53;4.77;;;4.60;1.00;;;;;;5052518;28;20282;-64
2023/12/13 07:40:29;;;;;;;6.03;5.17;;;4.60;1.00;;;;;;5044315;28;20433;-64
2023/12/13 07:42:55;;;;;;;4.73;4.23;;;4.50;1.00;;;;;;5025610;28;21001;-67
2023/12/13 07:45:22;;;;;;;5.20;4.73;;;4.50;1.00;;;;;;5024375;28;20186;-67
2023/12/13 07:47:49;;;;;;;5.73;4.77;;;4.50;1.00;;;;;;5023865;28;20197;-68
2023/12/13 07:50:15;;;;;;;4.87;4.47;;;4.50;1.00;;;;;;5034968;28;20427;-64
2023/12/13 07:52:41;;;;;;;5.70;5.00;;;4.50;1.00;;;;;;5052194;28;20445;-64
2023/12/13 07:55:07;;;;;;;6.47;5.50;;;4.50;1.00;;;;;;5058983;28;20490;-65
2023/12/13 07:57:33;;;;;;;5.70;5.13;;;4.50;1.00;;;;;;5073760;28;20740;-65
2023/12/13 07:59:58;;;;;;;4.83;4.30;;;4.50;1.00;;;;;;5041861;28;20425;-65
2023/12/13 08:02:24;;;;;;;5.57;4.90;;;4.50;1.00;;;;;;5048324;28;20234;-64
2023/12/13 08:04:50;;;;;;;4.33;4.03;;;4.60;1.00;;;;;;5051796;28;20206;-66
2023/12/13 08:07:16;;;;;;;9.53;3.87;;;4.60;1.00;;;;;;5050675;28;20198;-64
2023/12/13 08:09:43;;;;;;;4.57;4.17;;;4.60;1.00;;;;;;5043916;28;20189;-65
2023/12/13 08:12:08;;;;;;;3.87;3.67;;;4.50;1.00;;;;;;5036088;28;20431;-64
2023/12/13 08:14:34;;;;;;;4.40;4.10;;;4.50;1.00;;;;;;5050792;28;20463;-65
2023/12/13 08:17:06;;;;;;;3.90;3.70;;;4.50;1.00;;;;;;5050865;28;20208;-64
2023/12/13 08:19:32;;;;;;;6.40;5.10;;;4.50;1.00;;;;;;5064105;28;20172;-70
2023/12/13 08:21:57;;;;;;;7.37;6.80;;;4.50;1.00;;;;;;5070184;28;20644;-64
2023/12/13 08:24:23;;;;;;;8.30;5.50;;;4.50;1.00;;;;;;5045990;28;20229;-72
2023/12/13 08:26:49;;;;;;;5.87;5.07;;;4.50;1.00;;;;;;5050889;28;20185;-66
2023/12/13 08:29:15;;;;;;;4.40;4.00;;;4.50;1.00;;;;;;5049223;28;20185;-65
2023/12/13 08:31:41;;;;;;;4.90;4.40;;;4.50;1.00;;;;;;5058952;28;20240;-65
2023/12/13 08:34:07;;;;;;;5.67;5.20;;;4.50;1.00;;;;;;5061312;28;20471;-64
2023/12/13 08:36:32;;;;;;;5.77;5.00;;;4.50;1.00;;;;;;5049570;28;20181;-64
2023/12/13 08:38:58;;;;;;;4.90;4.10;;;4.50;1.00;;;;;;5050862;28;20186;-64
2023/12/13 08:41:24;;;;;;;7.40;6.07;;;4.50;1.00;;;;;;5057573;28;20180;-64
2023/12/13 08:43:49;;;;;;;13.03;6.37;;;4.50;1.00;;;;;;5071093;28;20188;-65
2023/12/13 08:46:15;;;;;;;6.07;5.20;;;4.50;1.00;;;;;;5056373;28;20187;-64
2023/12/13 08:48:41;;;;;;;6.77;6.07;;;4.50;1.00;;;;;;5052439;28;20204;-65
2023/12/13 08:51:06;;;;;;;6.53;5.70;;;4.60;1.00;;;;;;5039958;28;20187;-64
2023/12/13 08:53:32;;;;;;;11.30;6.10;;;4.60;1.00;;;;;;5069237;28;20206;-64
2023/12/13 08:55:58;;;;;;;8.00;5.47;;;4.60;1.00;;;;;;5072414;28;20263;-64
2023/12/13 08:58:23;;;;;;;11.20;5.90;;;4.50;1.00;;;;;;5068787;28;20667;-64
2023/12/13 09:00:49;;;;;;;6.30;5.70;;;4.50;1.00;;;;;;5064408;28;20539;-64
2023/12/13 09:03:15;;;;;;;9.20;6.23;;;4.50;1.00;;;;;;5053274;28;20223;-66
2023/12/13 09:05:40;;;;;;;6.90;5.97;;;4.50;1.00;;;;;;5052124;28;20574;-63
2023/12/13 09:08:07;;;;;;;6.33;5.73;;;4.50;1.00;;;;;;5036543;28;20242;-66
2023/12/13 09:10:34;;;;;;;8.50;5.83;;;4.50;1.00;;;;;;5033342;28;20262;-64
2023/12/13 09:13:03;;;;;;;6.87;5.40;;;4.60;1.00;;;;;;5040125;28;20490;-64
2023/12/13 09:15:31;;;;;;;6.47;5.87;;;4.70;1.00;;;;;;5070821;28;20504;-64
2023/12/13 09:17:57;;;;;;;6.00;5.37;;;4.60;1.00;;;;;;5073493;28;20448;-65
2023/12/13 09:20:23;;;;;;;5.67;4.87;;;4.50;1.00;;;;;;5074292;28;20434;-64
2023/12/13 09:22:48;;;;;;;7.77;5.23;;;4.50;1.00;;;;;;5077047;28;20489;-67
2023/12/13 09:25:14;;;;;;;6.67;5.50;;;4.40;1.00;;;;;;5040551;28;20692;-64
2023/12/13 09:27:40;;;;;;;5.60;4.77;;;4.50;1.00;;;;;;5036662;28;20199;-64
2023/12/13 09:30:09;;;;;;;5.00;4.60;;;4.50;1.00;;;;;;5066743;28;20183;-66
2023/12/13 09:32:34;;;;;;;7.10;4.60;;;4.60;1.00;;;;;;5054743;28;20427;-65
2023/12/13 09:35:00;;;;;;;6.23;5.63;;;4.60;1.00;;;;;;5072107;28;20576;-63
2023/12/13 09:37:26;;;;;;;5.47;4.60;;;4.70;1.00;;;;;;5063523;28;20244;-65
2023/12/13 09:39:52;;;;;;;5.43;5.03;;;4.60;1.00;;;;;;5056922;28;20173;-65
2023/12/13 09:42:18;;;;;;;6.60;5.20;;;4.60;1.00;;;;;;5054421;28;20185;-65
2023/12/13 09:44:44;;;;;;;5.73;5.20;;;4.50;1.00;;;;;;5054894;28;20405;-64
2023/12/13 09:47:13;;;;;;;5.73;4.83;;;4.60;1.00;;;;;;5056670;28;20954;-64
2023/12/13 09:49:40;;;;;;;6.43;5.40;;;4.60;1.00;;;;;;5054334;28;20451;-66
2023/12/13 09:52:08;;;;;;;7.50;5.27;;;4.60;1.00;;;;;;5056429;28;20446;-65
2023/12/13 09:54:35;;;;;;;6.70;4.90;;;4.50;1.00;;;;;;5054281;28;21771;-64
2023/12/13 09:57:03;;;;;;;5.70;4.87;;;4.50;1.00;;;;;;5074801;28;20454;-65
2023/12/13 09:59:29;;;;;;;5.80;5.37;;;4.50;1.00;;;;;;5075094;28;20444;-64
2023/12/13 10:01:56;;;;;;;8.27;5.60;;;4.60;1.00;;;;;;5073652;28;20808;-65
2023/12/13 10:04:28;;;;;;;6.13;5.53;;;4.50;1.00;;;;;;5076418;28;20168;-71
2023/12/13 10:06:54;;;;;;;8.10;5.73;;;4.50;1.00;;;;;;5055518;28;20550;-64
2023/12/13 10:09:20;;;;;;;6.93;5.43;;;4.50;1.00;;;;;;5054663;28;20410;-73
2023/12/13 10:11:46;;;;;;;8.20;5.60;;;4.40;1.00;;;;;;5055847;28;20529;-66
2023/12/13 10:14:12;;;;;;;6.60;4.90;;;4.50;1.00;;;;;;5063540;28;20668;-65
2023/12/13 10:16:41;;;;;;;6.23;5.60;;;4.50;1.00;;;;;;5050307;28;20455;-66
2023/12/13 10:19:07;;;;;;;9.70;6.30;;;4.50;1.00;;;;;;5053780;28;20431;-63
2023/12/13 10:21:36;;;;;;;9.33;6.47;;;4.40;1.00;;;;;;5057480;28;20756;-65
2023/12/13 10:24:05;;;;;;;7.10;5.77;;;4.40;1.00;;;;;;5068965;28;20801;-64
2023/12/13 10:26:39;;;;;;;14.50;6.47;;;4.50;1.00;;;;;;5071340;28;20427;-64
2023/12/13 10:29:04;;;;;;;6.90;6.13;;;4.60;1.00;;;;;;5075917;28;20399;-65
2023/12/13 10:31:31;;;;;;;6.33;5.10;;;4.60;1.00;;;;;;5073576;28;20566;-67
2023/12/13 10:33:57;;;;;;;12.53;6.00;;;4.50;1.00;;;;;;5057894;28;20204;-65
2023/12/13 10:36:26;;;;;;;5.97;5.40;;;4.50;1.00;;;;;;5059392;28;20917;-67
2023/12/13 10:38:53;;;;;;;6.03;5.33;;;4.50;1.00;;;;;;5066798;28;20954;-64
2023/12/13 10:41:25;;;;;;;5.07;4.60;;;4.50;1.00;;;;;;5060934;28;20426;-64
2023/12/13 10:43:55;;;;;;;7.83;4.83;;;4.50;1.00;;;;;;5062294;28;20538;-64
2023/12/13 10:46:22;;;;;;;5.23;4.40;;;4.50;1.00;;;;;;5063586;28;20515;-64
2023/12/13 10:48:48;;;;;;;5.63;4.83;;;4.50;1.00;;;;;;5071875;28;20460;-67
2023/12/13 10:51:15;;;;;;;7.07;6.40;;;4.50;1.00;;;;;;5075259;28;20404;-64
2023/12/13 10:53:42;;;;;;;5.07;4.67;;;4.50;1.00;;;;;;5059421;28;20994;-65
2023/12/13 10:56:09;;;;;;;4.77;4.23;;;4.50;1.00;;;;;;5059497;28;20789;-66
2023/12/13 10:58:35;;;;;;;5.17;4.67;;;4.40;1.00;;;;;;5073035;28;20457;-63
2023/12/13 11:01:02;;;;;;;5.27;4.77;;;4.50;1.00;;;;;;5062224;28;20465;-65
2023/12/13 11:03:42;;;;;;;5.43;4.60;;;4.50;1.00;;;;;;5065930;28;20450;-66
2023/12/13 11:06:12;;;;;;;4.70;4.30;;;4.40;1.00;;;;;;5048806;28;20437;-65
2023/12/13 11:08:39;;;;;;;12.27;4.20;;;4.40;1.00;;;;;;5049709;28;20456;-63
2023/12/13 11:11:07;;;;;;;5.27;4.80;;;4.40;1.00;;;;;;5047432;28;20515;-64
2023/12/13 11:13:39;;;;;;;7.27;4.40;;;4.40;1.00;;;;;;5059480;28;20459;-65
2023/12/13 11:16:20;;;;;;;4.93;3.93;;;4.30;1.00;;;;;;5054571;28;20473;-66
2023/12/13 11:18:46;;;;;;;4.93;4.53;;;4.30;1.00;;;;;;5055710;28;20448;-65
2023/12/13 11:21:27;;;;;;;4.63;4.27;;;4.30;1.00;;;;;;5064851;28;20439;-67
2023/12/13 11:24:09;;;;;;;4.83;4.40;;;4.40;1.00;;;;;;5074792;28;20850;-66
2023/12/13 11:26:42;;;;;;;4.50;4.20;;;4.30;1.00;;;;;;5069561;28;20860;-72
2023/12/13 11:29:15;;;;;;;6.33;4.20;;;4.40;1.00;;;;;;5049353;28;20860;-67
2023/12/13 11:31:58;;;;;;;4.43;3.90;;;4.40;1.00;;;;;;5059581;28;20450;-64
2023/12/13 11:34:48;;;;;;;5.87;3.73;;;4.40;1.00;;;;;;5053288;28;20470;-67
2023/12/13 11:37:15;;;;;;;4.43;3.97;;;4.40;1.00;;;;;;5053598;28;20435;-68
2023/12/13 11:39:42;;;;;;;5.73;3.87;;;4.40;1.00;;;;;;5049179;28;20953;-65
2023/12/13 11:42:10;;;;;;;4.10;3.80;;;4.40;1.00;;;;;;5051539;28;20978;-64
2023/12/13 11:44:37;;;;;;;4.63;4.33;;;4.40;1.00;;;;;;5051729;28;20437;-66
2023/12/13 11:47:05;;;;;;;4.30;4.00;;;4.30;1.00;;;;;;5052225;28;20480;-66
2023/12/13 11:49:31;;;;;;;9.53;4.27;;;4.40;1.00;;;;;;5053016;28;20484;-65
2023/12/13 11:51:58;;;;;;;6.20;3.80;;;4.30;1.00;;;;;;5071637;28;20515;-65
2023/12/13 11:54:24;;;;;;;5.73;5.13;;;4.30;1.00;;;;;;5074249;28;20551;-65
2023/12/13 11:56:50;;;;;;;4.53;4.13;;;4.30;1.00;;;;;;5070444;28;20436;-65
2023/12/13 11:59:16;;;;;;;6.37;4.60;;;4.30;1.00;;;;;;5073969;28;20403;-64
2023/12/13 12:01:42;;;;;;;5.27;3.80;;;4.30;1.00;;;;;;5072563;28;20407;-64
2023/12/13 12:04:09;;;;;;;7.17;4.93;;;4.30;1.00;;;;;;5065894;28;20444;-72
2023/12/13 12:06:34;;;;;;;5.30;4.80;;;4.30;1.00;;;;;;5057496;28;20172;-64
2023/12/13 12:09:02;;;;;;;4.70;4.20;;;4.40;1.00;;;;;;5071474;28;21179;-66
2023/12/13 12:11:28;;;;;;;11.90;4.77;;;4.40;1.00;;;;;;5062193;28;20249;-65
2023/12/13 12:13:55;;;;;;;7.20;4.77;;;4.30;1.00;;;;;;5062568;28;20514;-64
2023/12/13 12:16:21;;;;;;;8.03;4.57;;;4.30;1.00;;;;;;5060788;28;20260;-71
2023/12/13 12:18:47;;;;;;;11.10;5.40;;;4.40;1.00;;;;;;5055192;28;20459;-66
2023/12/13 12:21:13;;;;;;;7.07;5.73;;;4.40;1.00;;;;;;5042362;28;20422;-66
2023/12/13 12:23:40;;;;;;;8.77;5.50;;;4.40;1.00;;;;;;5070914;28;20195;-65
2023/12/13 12:26:10;;;;;;;7.17;5.17;;;4.40;1.00;;;;;;5070049;28;20428;-64
2023/12/13 12:28:38;;;;;;;9.10;5.00;;;4.30;1.00;;;;;;5045051;28;21010;-64
2023/12/13 12:31:04;;;;;;;5.63;5.13;;;4.30;1.00;;;;;;5053718;28;20770;-64
2023/12/13 12:33:30;;;;;;;5.90;4.80;;;4.30;1.00;;;;;;5053012;28;20456;-64
2023/12/13 12:35:57;;;;;;;10.07;7.20;;;4.30;1.00;;;;;;5052435;28;20415;-69
2023/12/13 12:38:23;;;;;;;8.33;6.27;;;4.30;1.00;;;;;;5051719;28;20446;-64
2023/12/13 12:40:50;;;;;;;12.07;8.20;;;4.30;1.00;;;;;;5053229;28;20420;-64
2023/12/13 12:43:20;;;;;;;7.93;6.17;;;4.20;1.00;;;;;;5052323;28;20425;-64
2023/12/13 12:45:49;;;;;;;8.20;5.70;;;4.20;1.00;;;;;;5052188;28;20460;-64
2023/12/13 12:48:15;;;;;;;7.20;5.10;;;4.30;1.00;;;;;;5053585;28;20421;-64
2023/12/13 12:50:41;;;;;;;7.83;5.20;;;4.20;1.00;;;;;;5053070;28;20493;-65
2023/12/13 12:53:07;;;;;;;7.70;5.60;;;4.20;1.00;;;;;;5052007;28;20262;-65
2023/12/13 12:55:34;;;;;;;6.10;5.27;;;4.20;1.00;;;;;;5052421;28;20409;-63
2023/12/13 12:58:00;;;;;;;8.73;5.07;;;4.20;1.00;;;;;;5057948;28;20460;-63
2023/12/13 13:00:26;;;;;;;9.70;5.60;;;4.20;1.00;;;;;;5070382;28;20453;-64